createdAt,value
2022-09-22T00:00:02.266Z,73.20
2022-09-22T00:02:33.003Z,73.30
2022-09-22T00:05:00.577Z,73.70
2022-09-22T00:07:27.757Z,74.00
2022-09-22T00:09:55.065Z,74.20
2022-09-22T00:12:22.547Z,74.40
2022-09-22T00:14:49.846Z,74.90
2022-09-22T00:17:17.090Z,75.30
2022-09-22T00:19:44.306Z,75.40
2022-09-22T00:22:11.505Z,76.80
2022-09-22T00:24:38.866Z,76.20
2022-09-22T00:27:06.597Z,76.50
2022-09-22T00:29:33.866Z,76.90
2022-09-22T00:32:06.995Z,77.00
2022-09-22T00:34:34.733Z,77.20
2022-09-22T00:37:02.395Z,77.50
2022-09-22T00:39:31.066Z,77.60
2022-09-22T00:41:58.317Z,77.70
2022-09-22T00:44:36.769Z,77.80
2022-09-22T00:47:06.804Z,78.00
2022-09-22T00:49:36.764Z,78.10
2022-09-22T00:52:04.266Z,78.30
2022-09-22T00:54:31.945Z,78.50
2022-09-22T00:57:07.687Z,78.40
2022-09-22T00:59:36.426Z,78.60
2022-09-22T01:02:03.943Z,78.60
2022-09-22T01:04:31.316Z,78.70
2022-09-22T01:06:59.146Z,78.80
2022-09-22T01:09:27.287Z,79.10
2022-09-22T01:11:54.536Z,79.30
2022-09-22T01:14:32.045Z,79.60
2022-09-22T01:17:02.146Z,79.50
2022-09-22T01:19:47.757Z,79.60
2022-09-22T01:22:18.127Z,80.00
2022-09-22T01:24:48.176Z,80.30
2022-09-22T01:27:34.006Z,80.60
2022-09-22T01:30:10.076Z,80.90
2022-09-22T01:32:42.763Z,81.30
2022-09-22T01:35:10.027Z,81.40
2022-09-22T01:37:37.526Z,81.70
2022-09-22T01:40:07.639Z,81.90
2022-09-22T01:42:55.066Z,82.20
2022-09-22T01:45:24.256Z,82.40
2022-09-22T01:47:53.847Z,82.60
2022-09-22T01:50:32.849Z,82.60
2022-09-22T01:53:03.566Z,82.80
2022-09-22T01:55:32.987Z,83.00
2022-09-22T01:58:18.494Z,83.90
2022-09-22T02:01:13.614Z,83.00
2022-09-22T02:03:44.736Z,83.20
2022-09-22T02:06:18.606Z,83.70
2022-09-22T02:08:48.476Z,83.60
2022-09-22T02:11:18.897Z,83.80
2022-09-22T02:13:47.336Z,84.00
2022-09-22T02:16:16.234Z,84.10
2022-09-22T02:18:49.526Z,84.00
2022-09-22T02:21:17.346Z,84.20
2022-09-22T02:23:45.296Z,84.50
2022-09-22T02:26:13.664Z,84.60
2022-09-22T02:28:42.215Z,84.70
2022-09-22T02:31:20.076Z,84.90
2022-09-22T02:33:48.129Z,85.00
2022-09-22T02:36:23.897Z,85.10
2022-09-22T02:39:00.397Z,85.60
2022-09-22T02:41:36.086Z,86.10
2022-09-22T02:44:06.192Z,86.10
2022-09-22T02:46:33.513Z,86.40
2022-09-22T02:49:04.075Z,86.40
2022-09-22T02:51:31.445Z,86.60
2022-09-22T02:53:58.705Z,86.50
2022-09-22T02:56:25.996Z,86.90
2022-09-22T02:58:58.169Z,87.30
2022-09-22T03:01:26.000Z,87.00
2022-09-22T03:03:53.765Z,87.00
2022-09-22T03:06:21.116Z,87.30
2022-09-22T03:08:48.366Z,87.30
2022-09-22T03:11:15.606Z,87.80
2022-09-22T03:13:42.856Z,88.20
2022-09-22T03:16:10.196Z,88.40
2022-09-22T03:18:37.485Z,88.80
2022-09-22T03:21:05.277Z,89.20
2022-09-22T03:23:32.547Z,89.80
2022-09-22T03:25:59.815Z,90.00
2022-09-22T03:28:27.106Z,90.10
2022-09-22T03:30:54.437Z,90.10
2022-09-22T03:33:21.694Z,90.10
2022-09-22T03:35:48.975Z,90.30
2022-09-22T03:38:16.188Z,90.60
2022-09-22T03:40:49.684Z,90.70
2022-09-22T03:43:17.615Z,91.10
2022-09-22T03:45:45.161Z,91.20
2022-09-22T03:48:12.611Z,91.30
2022-09-22T03:50:39.808Z,91.40
2022-09-22T03:53:07.086Z,91.70
2022-09-22T03:55:34.946Z,91.90
2022-09-22T03:58:02.227Z,91.90
2022-09-22T04:00:29.578Z,92.00
2022-09-22T04:02:57.756Z,92.00
2022-09-22T04:05:25.517Z,92.20
2022-09-22T04:07:52.977Z,92.40
2022-09-22T04:10:21.127Z,92.40
2022-09-22T04:12:48.727Z,92.50
2022-09-22T04:15:16.838Z,92.70
2022-09-22T04:17:46.587Z,93.20
2022-09-22T04:20:13.837Z,93.50
2022-09-22T04:22:41.186Z,93.40
2022-09-22T04:25:08.869Z,93.50
2022-09-22T04:27:36.247Z,93.70
2022-09-22T04:30:03.656Z,93.90
2022-09-22T04:32:30.938Z,94.00
2022-09-22T04:34:58.231Z,94.20
2022-09-22T04:37:25.478Z,94.40
2022-09-22T04:39:54.627Z,94.50
2022-09-22T04:42:22.037Z,94.70
2022-09-22T04:44:49.216Z,94.70
2022-09-22T04:47:16.647Z,94.50
2022-09-22T04:49:43.876Z,94.70
2022-09-22T04:52:11.175Z,95.00
2022-09-22T04:54:38.457Z,94.90
2022-09-22T04:57:05.940Z,94.70
2022-09-22T04:59:33.146Z,94.70
2022-09-22T05:02:00.447Z,95.20
2022-09-22T05:04:28.109Z,95.30
2022-09-22T05:06:55.558Z,95.40
2022-09-22T05:09:22.976Z,95.30
2022-09-22T05:11:50.278Z,95.50
2022-09-22T05:14:21.589Z,95.50
2022-09-22T05:16:51.303Z,95.60
2022-09-22T05:19:18.474Z,95.60
2022-09-22T05:21:45.489Z,95.70
2022-09-22T05:24:12.620Z,95.90
2022-09-22T05:26:39.780Z,95.80
2022-09-22T05:29:06.830Z,96.10
2022-09-22T05:31:34.085Z,96.30
2022-09-22T05:34:01.180Z,96.50
2022-09-22T05:36:28.219Z,96.60
2022-09-22T05:38:55.329Z,96.50
2022-09-22T05:41:22.399Z,96.70
2022-09-22T05:43:49.390Z,96.80
2022-09-22T05:46:16.575Z,97.20
2022-09-22T05:48:43.589Z,97.40
2022-09-22T05:51:10.760Z,97.40
2022-09-22T05:53:37.830Z,97.50
2022-09-22T05:56:05.026Z,97.50
2022-09-22T05:58:31.999Z,97.80
2022-09-22T06:00:59.191Z,97.60
2022-09-22T06:03:26.320Z,97.50
2022-09-22T06:05:53.410Z,97.60
2022-09-22T06:08:20.519Z,97.50
2022-09-22T06:10:49.211Z,97.50
2022-09-22T06:13:16.251Z,97.40
2022-09-22T06:15:44.870Z,97.50
2022-09-22T06:18:15.159Z,97.90
2022-09-22T06:20:43.050Z,98.20
2022-09-22T06:23:10.549Z,98.30
2022-09-22T06:25:37.631Z,98.40
2022-09-22T06:28:05.818Z,98.20
2022-09-22T06:30:34.009Z,98.20
2022-09-22T06:33:01.220Z,98.40
2022-09-22T06:35:46.462Z,98.40
2022-09-22T06:38:16.957Z,98.50
2022-09-22T06:40:44.260Z,98.60
2022-09-22T06:43:17.409Z,98.60
2022-09-22T06:45:44.512Z,98.60
2022-09-22T06:48:11.892Z,98.30
2022-09-22T06:50:41.196Z,98.30
2022-09-22T06:53:11.772Z,98.40
2022-09-22T06:55:41.746Z,98.40
2022-09-22T06:58:09.317Z,98.30
2022-09-22T07:00:37.379Z,98.40
2022-09-22T07:03:21.089Z,98.30
2022-09-22T07:06:01.033Z,98.10
2022-09-22T07:08:29.552Z,98.30
2022-09-22T07:11:02.422Z,98.00
2022-09-22T07:13:31.259Z,98.00
2022-09-22T07:16:02.278Z,97.90
2022-09-22T07:18:30.074Z,97.80
2022-09-22T07:21:10.479Z,97.90
2022-09-22T07:23:37.539Z,97.80
2022-09-22T07:26:12.349Z,97.80
2022-09-22T07:28:39.950Z,97.50
2022-09-22T07:31:08.528Z,97.40
2022-09-22T07:33:36.509Z,97.20
2022-09-22T07:36:23.872Z,96.80
2022-09-22T07:38:51.874Z,96.60
2022-09-22T07:41:21.760Z,96.50
2022-09-22T07:43:53.589Z,96.30
2022-09-22T07:46:20.762Z,96.30
2022-09-22T07:48:48.117Z,95.70
2022-09-22T07:51:21.774Z,95.60
2022-09-22T07:53:50.000Z,95.30
2022-09-22T07:56:18.440Z,95.00
2022-09-22T07:58:52.509Z,94.70
2022-09-22T08:01:20.612Z,94.30
2022-09-22T08:03:47.791Z,93.50
2022-09-22T08:06:16.204Z,93.20
2022-09-22T08:08:44.830Z,92.40
2022-09-22T08:11:15.040Z,91.90
2022-09-22T08:13:43.924Z,91.30
2022-09-22T08:16:11.988Z,90.80
2022-09-22T08:18:39.830Z,90.50
2022-09-22T08:21:07.230Z,90.10
2022-09-22T08:23:34.592Z,88.70
2022-09-22T08:26:05.781Z,86.40
2022-09-22T08:28:33.349Z,85.50
2022-09-22T08:31:00.822Z,84.50
2022-09-22T08:33:29.570Z,83.60
2022-09-22T08:35:57.949Z,82.10
2022-09-22T08:38:28.254Z,81.00
2022-09-22T08:40:56.208Z,79.30
2022-09-22T08:43:23.396Z,78.00
2022-09-22T08:45:50.930Z,77.10
2022-09-22T08:48:41.600Z,76.00
2022-09-22T08:51:30.635Z,75.50
2022-09-22T08:54:03.055Z,73.90
2022-09-22T08:56:51.882Z,73.70
2022-09-22T08:59:23.139Z,72.70
2022-09-22T09:02:02.757Z,69.90
2022-09-22T09:04:44.929Z,68.40
2022-09-22T09:07:15.039Z,68.00
2022-09-22T09:09:51.810Z,67.20
2022-09-22T09:12:33.530Z,66.00
2022-09-22T09:15:15.580Z,64.90
2022-09-22T09:17:44.710Z,63.90
2022-09-22T09:20:19.791Z,63.20
2022-09-22T09:22:55.897Z,61.70
2022-09-22T09:25:35.932Z,61.20
2022-09-22T09:28:07.253Z,60.00
2022-09-22T09:30:41.881Z,59.70
2022-09-22T09:33:14.490Z,59.70
2022-09-22T09:35:44.410Z,58.80
2022-09-22T09:38:14.846Z,58.60
2022-09-22T09:40:42.452Z,57.80
2022-09-22T09:43:10.570Z,57.80
2022-09-22T09:45:37.554Z,58.00
2022-09-22T09:48:04.549Z,57.50
2022-09-22T09:50:32.536Z,57.00
2022-09-22T09:53:00.138Z,56.60
2022-09-22T09:55:27.831Z,56.80
2022-09-22T09:58:02.611Z,56.50
2022-09-22T10:00:32.673Z,56.80
2022-09-22T10:03:02.741Z,56.00
2022-09-22T10:05:30.747Z,56.10
2022-09-22T10:07:59.032Z,54.80
2022-09-22T10:10:28.890Z,54.30
2022-09-22T10:12:58.961Z,54.30
2022-09-22T10:15:26.771Z,54.00
2022-09-22T10:17:53.869Z,53.90
2022-09-22T10:20:28.359Z,54.40
2022-09-22T10:22:56.191Z,53.80
2022-09-22T10:25:27.549Z,53.40
2022-09-22T10:28:02.170Z,53.40
2022-09-22T10:30:33.190Z,53.10
2022-09-22T10:33:06.322Z,52.60
2022-09-22T10:35:34.651Z,52.20
2022-09-22T10:38:13.453Z,52.40
2022-09-22T10:40:42.150Z,52.80
2022-09-22T10:43:18.966Z,52.20
2022-09-22T10:46:06.238Z,51.40
2022-09-22T10:48:39.030Z,51.40
2022-09-22T10:51:09.329Z,51.90
2022-09-22T10:53:36.370Z,51.60
2022-09-22T10:56:05.683Z,51.60
2022-09-22T10:58:40.360Z,51.40
2022-09-22T11:01:12.082Z,51.10
2022-09-22T11:03:48.222Z,50.90
2022-09-22T11:06:33.910Z,50.70
2022-09-22T11:09:42.075Z,50.60
2022-09-22T11:12:17.115Z,50.50
2022-09-22T11:14:53.344Z,49.70
2022-09-22T11:17:43.087Z,49.80
2022-09-22T11:20:27.865Z,49.40
2022-09-22T11:23:13.623Z,49.70
2022-09-22T11:25:40.924Z,49.70
2022-09-22T11:28:31.283Z,49.50
2022-09-22T11:30:59.391Z,49.60
2022-09-22T11:33:55.684Z,49.70
2022-09-22T11:36:31.284Z,49.40
2022-09-22T11:39:01.584Z,49.00
2022-09-22T11:41:38.304Z,48.80
2022-09-22T11:44:12.054Z,48.50
2022-09-22T11:46:55.067Z,49.10
2022-09-22T11:49:41.143Z,48.80
2022-09-22T11:52:16.565Z,48.70
2022-09-22T11:55:00.509Z,48.60
2022-09-22T11:57:31.387Z,48.50
2022-09-22T11:59:59.084Z,48.10
2022-09-22T12:02:32.595Z,48.10
2022-09-22T12:05:02.063Z,48.60
2022-09-22T12:07:34.264Z,48.00
2022-09-22T12:10:03.287Z,48.10
2022-09-22T12:12:31.732Z,49.20
2022-09-22T12:15:22.246Z,48.80
2022-09-22T12:17:57.214Z,48.90
2022-09-22T12:20:33.404Z,47.90
2022-09-22T12:23:19.115Z,48.70
2022-09-22T12:25:52.374Z,48.30
2022-09-22T12:28:23.054Z,47.90
2022-09-22T12:31:00.045Z,48.30
2022-09-22T12:36:09.023Z,48.90
2022-09-22T12:38:36.185Z,48.50
2022-09-22T12:41:04.548Z,48.00
2022-09-22T12:43:32.724Z,47.50
2022-09-22T12:48:45.328Z,49.20
2022-09-22T12:51:30.555Z,48.40
2022-09-22T12:54:37.158Z,48.80
2022-09-22T12:59:39.323Z,48.60
2022-09-22T13:02:16.144Z,48.80
2022-09-22T13:04:49.557Z,48.40
2022-09-22T13:07:46.172Z,48.40
2022-09-22T13:10:22.383Z,47.40
2022-09-22T13:13:09.448Z,47.60
2022-09-22T13:18:33.564Z,47.70
2022-09-22T13:21:21.115Z,48.10
2022-09-22T13:23:51.084Z,47.50
2022-09-22T13:26:25.803Z,47.80
2022-09-22T13:29:00.264Z,48.80
2022-09-22T13:31:27.644Z,47.80
2022-09-22T13:33:54.824Z,48.40
2022-09-22T13:36:23.992Z,47.80
2022-09-22T13:38:55.604Z,47.90
2022-09-22T13:41:30.284Z,47.80
2022-09-22T13:44:01.714Z,47.90
2022-09-22T13:46:45.665Z,47.50
2022-09-22T13:49:17.134Z,47.40
2022-09-22T13:51:49.054Z,47.40
2022-09-22T13:54:20.091Z,47.30
2022-09-22T13:56:47.364Z,47.40
2022-09-22T13:59:17.341Z,47.30
2022-09-22T14:01:49.212Z,47.20
2022-09-22T14:04:27.055Z,47.00
2022-09-22T14:06:56.244Z,46.90
2022-09-22T14:09:24.323Z,47.20
2022-09-22T14:11:51.943Z,46.50
2022-09-22T14:14:26.497Z,47.00
2022-09-22T14:17:13.934Z,47.20
2022-09-22T14:19:44.960Z,47.30
2022-09-22T14:22:15.104Z,47.00
2022-09-22T14:24:45.105Z,46.80
2022-09-22T14:27:27.433Z,46.90
2022-09-22T14:29:55.376Z,46.80
2022-09-22T14:32:25.625Z,47.00
2022-09-22T14:34:57.142Z,47.10
2022-09-22T14:37:29.443Z,46.70
2022-09-22T14:39:58.704Z,46.10
2022-09-22T14:42:29.914Z,46.20
2022-09-22T14:45:09.184Z,46.80
2022-09-22T14:47:40.985Z,46.20
2022-09-22T14:50:11.555Z,46.30
2022-09-22T14:52:40.923Z,46.70
2022-09-22T14:55:28.925Z,46.90
2022-09-22T14:57:56.856Z,46.70
2022-09-22T15:00:42.656Z,46.70
2022-09-22T15:03:30.113Z,46.60
2022-09-22T15:06:05.634Z,46.80
2022-09-22T15:08:32.713Z,46.00
2022-09-22T15:13:42.167Z,46.00
2022-09-22T15:16:27.921Z,46.40
2022-09-22T15:18:55.627Z,46.10
2022-09-22T15:21:29.356Z,46.20
2022-09-22T15:23:58.122Z,46.20
2022-09-22T15:26:26.281Z,46.00
2022-09-22T15:28:54.720Z,46.10
2022-09-22T15:31:29.103Z,45.80
2022-09-22T15:33:57.211Z,45.80
2022-09-22T15:36:25.854Z,46.30
2022-09-22T15:38:59.680Z,46.40
2022-09-22T15:41:27.275Z,45.70
2022-09-22T15:43:54.671Z,45.40
2022-09-22T15:46:34.106Z,45.70
2022-09-22T15:49:08.912Z,46.40
2022-09-22T15:51:36.525Z,47.20
2022-09-22T15:54:03.774Z,47.00
2022-09-22T15:56:31.134Z,46.80
2022-09-22T16:01:42.756Z,46.40
2022-09-22T16:04:10.676Z,46.70
2022-09-22T16:06:38.417Z,47.10
2022-09-22T16:09:06.246Z,46.90
2022-09-22T16:14:14.750Z,46.60
2022-09-22T16:16:43.201Z,46.60
2022-09-22T16:21:53.063Z,46.20
2022-09-22T16:24:22.794Z,46.70
2022-09-22T16:26:51.543Z,46.90
2022-09-22T16:29:18.825Z,47.50
2022-09-22T16:31:46.377Z,46.30
2022-09-22T16:34:13.702Z,46.70
2022-09-22T16:36:41.982Z,47.00
2022-09-22T16:39:09.273Z,46.70
2022-09-22T16:41:37.028Z,46.50
2022-09-22T16:44:04.894Z,46.30
2022-09-22T16:46:33.944Z,46.50
2022-09-22T16:49:05.385Z,46.50
2022-09-22T16:51:36.662Z,46.60
2022-09-22T16:54:05.702Z,46.30
2022-09-22T16:56:34.293Z,46.40
2022-09-22T16:59:04.593Z,46.80
2022-09-22T17:04:16.591Z,47.50
2022-09-22T17:06:44.013Z,47.80
2022-09-22T17:09:11.931Z,48.00
2022-09-22T17:11:43.047Z,48.10
2022-09-22T17:14:12.575Z,48.10
2022-09-22T17:16:43.757Z,48.40
2022-09-22T17:19:11.968Z,48.50
2022-09-22T17:21:40.302Z,48.50
2022-09-22T17:24:09.412Z,49.10
2022-09-22T17:26:37.958Z,49.20
2022-09-22T17:29:06.258Z,49.00
2022-09-22T17:31:36.005Z,49.10
2022-09-22T17:34:03.373Z,49.40
2022-09-22T17:36:30.666Z,50.10
2022-09-22T17:38:58.788Z,50.00
2022-09-22T17:41:31.675Z,50.50
2022-09-22T17:44:01.519Z,51.00
2022-09-22T17:46:30.238Z,51.00
2022-09-22T17:49:16.454Z,51.10
2022-09-22T17:52:02.843Z,51.30
2022-09-22T17:57:31.231Z,52.20
2022-09-22T17:59:58.861Z,52.00
2022-09-22T18:02:27.615Z,52.10
2022-09-22T18:04:55.069Z,52.30
2022-09-22T18:07:24.198Z,53.20
2022-09-22T18:09:52.029Z,53.00
2022-09-22T18:12:21.610Z,52.90
2022-09-22T18:14:50.368Z,53.50
2022-09-22T18:17:19.214Z,54.00
2022-09-22T18:19:46.576Z,53.90
2022-09-22T18:22:17.043Z,53.10
2022-09-22T18:24:44.342Z,53.30
2022-09-22T18:27:13.433Z,52.60
2022-09-22T18:29:40.662Z,53.60
2022-09-22T18:32:07.731Z,52.70
2022-09-22T18:34:34.790Z,52.60
2022-09-22T18:37:03.990Z,52.50
2022-09-22T18:39:34.261Z,51.80
2022-09-22T18:42:01.349Z,51.90
2022-09-22T18:44:29.230Z,52.50
2022-09-22T18:46:58.039Z,52.80
2022-09-22T18:49:26.240Z,53.20
2022-09-22T18:51:53.559Z,53.70
2022-09-22T18:54:22.221Z,54.10
2022-09-22T18:56:50.041Z,54.60
2022-09-22T18:59:19.080Z,53.80
2022-09-22T19:01:46.967Z,53.70
2022-09-22T19:04:17.711Z,53.90
2022-09-22T19:07:04.129Z,54.10
2022-09-22T19:09:31.199Z,54.40
2022-09-22T19:11:58.949Z,54.80
2022-09-22T19:14:26.099Z,54.70
2022-09-22T19:16:53.510Z,54.50
2022-09-22T19:19:21.610Z,54.20
2022-09-22T19:21:52.029Z,54.20
2022-09-22T19:24:19.260Z,54.20
2022-09-22T19:26:46.290Z,54.20
2022-09-22T19:29:13.479Z,54.30
2022-09-22T19:31:41.600Z,54.20
2022-09-22T19:36:49.941Z,53.50
2022-09-22T19:39:17.020Z,53.70
2022-09-22T19:41:48.459Z,54.00
2022-09-22T19:44:16.422Z,54.10
2022-09-22T19:46:44.621Z,54.20
2022-09-22T19:49:12.239Z,54.40
2022-09-22T19:51:39.839Z,55.10
2022-09-22T19:56:49.790Z,54.90
2022-09-22T20:02:01.489Z,55.90
2022-09-22T20:04:34.061Z,56.00
2022-09-22T20:07:01.689Z,55.90
2022-09-22T20:09:28.850Z,56.00
2022-09-22T20:11:55.930Z,56.30
2022-09-22T20:14:23.753Z,56.70
2022-09-22T20:17:05.615Z,56.80
2022-09-22T20:19:34.197Z,56.90
2022-09-22T20:22:23.016Z,57.30
2022-09-22T20:24:54.948Z,57.50
2022-09-22T20:30:05.297Z,57.60
2022-09-22T20:32:32.587Z,57.70
2022-09-22T20:34:59.707Z,57.90
2022-09-22T20:37:26.766Z,58.10
2022-09-22T20:39:53.867Z,58.20
2022-09-22T20:42:20.923Z,58.30
2022-09-22T20:44:49.247Z,58.40
2022-09-22T20:47:17.429Z,58.60
2022-09-22T20:49:48.128Z,58.60
2022-09-22T20:52:20.247Z,58.50
2022-09-22T20:54:47.748Z,58.50
2022-09-22T20:57:14.997Z,58.30
2022-09-22T20:59:46.122Z,58.10
2022-09-22T21:02:14.393Z,58.10
2022-09-22T21:04:41.810Z,58.10
2022-09-22T21:07:09.361Z,57.90
2022-09-22T21:09:54.637Z,57.90
2022-09-22T21:12:21.786Z,58.10
2022-09-22T21:14:48.925Z,57.70
2022-09-22T21:17:15.960Z,57.90
2022-09-22T21:19:43.452Z,58.10
2022-09-22T21:22:10.717Z,57.60
2022-09-22T21:24:37.787Z,57.70
2022-09-22T21:27:05.228Z,57.80
2022-09-22T21:29:32.378Z,58.00
2022-09-22T21:32:00.751Z,58.00
2022-09-22T21:34:27.867Z,57.90
2022-09-22T21:36:54.948Z,57.90
2022-09-22T21:39:22.107Z,57.90
2022-09-22T21:41:49.519Z,58.10
2022-09-22T21:44:16.517Z,58.30
2022-09-22T21:46:44.420Z,58.00
2022-09-22T21:49:11.607Z,58.10
2022-09-22T21:51:42.338Z,58.20
2022-09-22T21:54:13.799Z,58.30
2022-09-22T21:56:41.148Z,58.40
2022-09-22T21:59:08.596Z,58.30
2022-09-22T22:01:37.249Z,59.20
2022-09-22T22:04:08.812Z,58.50
2022-09-22T22:06:43.098Z,58.80
2022-09-22T22:09:14.134Z,59.20
2022-09-22T22:11:43.095Z,59.30
2022-09-22T22:14:10.946Z,59.20
2022-09-22T22:16:39.175Z,59.30
2022-09-22T22:19:07.004Z,59.20
2022-09-22T22:21:34.335Z,59.30
2022-09-22T22:24:22.344Z,59.30
2022-09-22T22:26:56.964Z,59.30
2022-09-22T22:29:27.515Z,59.50
2022-09-22T22:31:54.619Z,59.70
2022-09-22T22:34:22.675Z,59.60
2022-09-22T22:36:49.798Z,59.40
2022-09-22T22:39:16.805Z,59.70
2022-09-22T22:41:44.674Z,60.00
2022-09-22T22:44:16.455Z,60.40
2022-09-22T22:46:43.885Z,60.60
2022-09-22T22:49:11.814Z,60.70
2022-09-22T22:51:43.330Z,60.50
2022-09-22T22:54:11.679Z,60.70
2022-09-22T22:56:41.968Z,61.00
2022-09-22T22:59:09.614Z,61.30
2022-09-22T23:01:36.849Z,61.30
2022-09-22T23:04:05.386Z,61.30
2022-09-22T23:06:35.871Z,61.10
2022-09-22T23:09:04.060Z,61.50
2022-09-22T23:11:32.997Z,61.80
2022-09-22T23:14:03.249Z,61.50
2022-09-22T23:16:31.267Z,62.10
2022-09-22T23:18:59.876Z,62.20
2022-09-22T23:21:27.505Z,62.60
2022-09-22T23:23:55.036Z,62.50
2022-09-22T23:26:22.574Z,62.80
2022-09-22T23:28:51.655Z,62.90
2022-09-22T23:31:19.654Z,62.80
2022-09-22T23:33:47.606Z,62.80
2022-09-22T23:36:18.575Z,63.10
2022-09-22T23:38:45.796Z,63.10
2022-09-22T23:41:13.365Z,63.10
2022-09-22T23:43:40.485Z,63.20
2022-09-22T23:46:07.882Z,62.90
2022-09-22T23:48:35.617Z,63.40
2022-09-22T23:51:03.334Z,63.80
2022-09-22T23:53:34.868Z,63.80
2022-09-22T23:56:02.727Z,63.70
2022-09-22T23:58:30.845Z,64.40
